createdAt,value
2024-01-07T00:00:03.990Z,25.40
2024-01-07T00:01:04.157Z,25.40
2024-01-07T00:02:03.997Z,27.10
2024-01-07T00:03:03.980Z,25.20
2024-01-07T00:04:03.977Z,25.80
2024-01-07T00:05:03.998Z,26.50
2024-01-07T00:06:03.940Z,25.10
2024-01-07T00:07:03.992Z,25.00
2024-01-07T00:08:03.900Z,25.60
2024-01-07T00:09:03.904Z,26.10
2024-01-07T00:10:03.930Z,31.30
2024-01-07T00:11:03.890Z,38.70
2024-01-07T00:12:03.835Z,28.40
2024-01-07T00:13:03.949Z,26.70
2024-01-07T00:14:03.799Z,25.80
2024-01-07T00:15:03.841Z,25.20
2024-01-07T00:16:03.827Z,25.10
2024-01-07T00:17:03.780Z,27.50
2024-01-07T00:18:03.828Z,26.40
2024-01-07T00:19:03.902Z,25.20
2024-01-07T00:20:03.747Z,26.00
2024-01-07T00:21:03.753Z,25.50
2024-01-07T00:22:03.732Z,25.60
2024-01-07T00:23:03.709Z,27.10
2024-01-07T00:24:03.685Z,27.80
2024-01-07T00:25:03.734Z,27.70
2024-01-07T00:26:03.651Z,26.30
2024-01-07T00:27:03.642Z,26.50
2024-01-07T00:28:03.782Z,26.50
2024-01-07T00:29:03.655Z,26.40
2024-01-07T00:30:03.683Z,26.50
2024-01-07T00:31:03.738Z,26.40
2024-01-07T00:32:03.563Z,27.20
2024-01-07T00:33:03.606Z,26.50
2024-01-07T00:34:03.622Z,25.90
2024-01-07T00:35:03.661Z,27.00
2024-01-07T00:36:03.527Z,25.20
2024-01-07T00:37:03.592Z,26.10
2024-01-07T00:38:03.505Z,27.30
2024-01-07T00:39:03.484Z,26.90
2024-01-07T00:40:03.592Z,27.80
2024-01-07T00:41:03.523Z,27.80
2024-01-07T00:42:03.447Z,29.10
2024-01-07T00:43:03.586Z,29.40
2024-01-07T00:44:03.435Z,27.80
2024-01-07T00:45:03.395Z,28.00
2024-01-07T00:46:03.444Z,28.60
2024-01-07T00:47:03.390Z,28.10
2024-01-07T00:48:03.504Z,28.90
2024-01-07T00:49:03.513Z,27.90
2024-01-07T00:50:03.344Z,29.20
2024-01-07T00:51:03.396Z,28.30
2024-01-07T00:52:03.372Z,28.50
2024-01-07T00:53:03.297Z,28.80
2024-01-07T00:54:03.308Z,30.40
2024-01-07T00:55:03.348Z,29.40
2024-01-07T00:56:03.248Z,29.00
2024-01-07T00:57:03.545Z,30.50
2024-01-07T00:58:03.332Z,30.00
2024-01-07T00:59:03.218Z,29.50
2024-01-07T01:00:03.206Z,29.30
2024-01-07T01:01:03.315Z,29.30
2024-01-07T01:02:03.218Z,27.30
2024-01-07T01:03:03.175Z,29.10
2024-01-07T01:04:03.217Z,28.50
2024-01-07T01:05:03.249Z,28.40
2024-01-07T01:06:03.154Z,28.60
2024-01-07T01:07:03.172Z,27.30
2024-01-07T01:08:03.097Z,27.30
2024-01-07T01:09:03.100Z,28.50
2024-01-07T01:10:03.188Z,28.30
2024-01-07T01:11:03.113Z,27.20
2024-01-07T01:12:03.090Z,28.90
2024-01-07T01:13:03.100Z,29.00
2024-01-07T01:14:03.021Z,28.20
2024-01-07T01:15:03.018Z,28.10
2024-01-07T01:16:03.018Z,27.00
2024-01-07T01:17:03.006Z,28.20
2024-01-07T01:18:03.099Z,27.80
2024-01-07T01:19:03.141Z,28.10
2024-01-07T01:20:02.948Z,27.30
2024-01-07T01:21:02.951Z,28.40
2024-01-07T01:22:03.079Z,27.80
2024-01-07T01:23:02.919Z,29.00
2024-01-07T01:24:02.944Z,28.70
2024-01-07T01:25:02.957Z,29.30
2024-01-07T01:26:02.893Z,28.00
2024-01-07T01:27:02.912Z,28.80
2024-01-07T01:28:02.957Z,27.80
2024-01-07T01:29:02.904Z,28.10
2024-01-07T01:30:02.797Z,28.10
2024-01-07T01:31:02.858Z,28.00
2024-01-07T01:32:02.823Z,27.80
2024-01-07T01:33:02.877Z,28.30
2024-01-07T01:34:02.913Z,28.90
2024-01-07T01:35:02.807Z,28.20
2024-01-07T01:36:02.732Z,28.00
2024-01-07T01:37:02.763Z,28.70
2024-01-07T01:38:02.720Z,28.50
2024-01-07T01:39:02.727Z,27.80
2024-01-07T01:40:02.742Z,27.60
2024-01-07T01:41:02.663Z,27.50
2024-01-07T01:42:02.660Z,28.50
2024-01-07T01:43:02.780Z,29.30
2024-01-07T01:44:02.639Z,29.20
2024-01-07T01:45:02.781Z,29.50
2024-01-07T01:46:02.703Z,28.30
2024-01-07T01:47:02.603Z,26.60
2024-01-07T01:48:02.729Z,28.00
2024-01-07T01:49:02.641Z,25.60
2024-01-07T01:50:02.578Z,27.10
2024-01-07T01:51:02.536Z,26.70
2024-01-07T01:52:02.587Z,26.80
2024-01-07T01:53:02.527Z,25.70
2024-01-07T01:54:02.483Z,25.70
2024-01-07T01:55:02.645Z,26.90
2024-01-07T01:56:02.461Z,25.50
2024-01-07T01:57:02.476Z,25.80
2024-01-07T01:58:02.553Z,25.80
2024-01-07T01:59:02.430Z,24.70
2024-01-07T02:00:02.417Z,24.90
2024-01-07T02:01:02.514Z,23.90
2024-01-07T02:02:02.478Z,24.10
2024-01-07T02:03:02.373Z,24.00
2024-01-07T02:04:02.398Z,23.10
2024-01-07T02:05:02.411Z,23.80
2024-01-07T02:06:02.342Z,22.90
2024-01-07T02:07:02.396Z,22.90
2024-01-07T02:08:02.296Z,22.60
2024-01-07T02:09:02.282Z,22.20
2024-01-07T02:10:02.427Z,22.90
2024-01-07T02:11:02.274Z,22.90
2024-01-07T02:12:02.250Z,23.20
2024-01-07T02:13:02.299Z,22.00
2024-01-07T02:14:02.250Z,21.50
2024-01-07T02:15:02.250Z,22.00
2024-01-07T02:16:02.318Z,22.30
2024-01-07T02:17:02.198Z,23.00
2024-01-07T02:18:02.239Z,21.90
2024-01-07T02:19:02.209Z,22.70
2024-01-07T02:20:02.275Z,22.20
2024-01-07T02:21:02.140Z,21.70
2024-01-07T02:22:02.195Z,22.20
2024-01-07T02:23:02.094Z,21.50
2024-01-07T02:24:02.094Z,22.10
2024-01-07T02:25:02.179Z,20.40
2024-01-07T02:26:02.089Z,20.70
2024-01-07T02:27:02.056Z,20.80
2024-01-07T02:28:02.100Z,20.60
2024-01-07T02:29:02.034Z,19.80
2024-01-07T02:30:02.039Z,19.70
2024-01-07T02:31:02.116Z,20.10
2024-01-07T02:32:01.988Z,19.00
2024-01-07T02:33:02.018Z,18.60
2024-01-07T02:34:02.036Z,19.10
2024-01-07T02:35:01.949Z,19.30
2024-01-07T02:36:01.952Z,18.80
2024-01-07T02:37:02.014Z,18.60
2024-01-07T02:38:01.909Z,19.20
2024-01-07T02:39:01.923Z,20.00
2024-01-07T02:40:02.358Z,18.50
2024-01-07T02:41:01.877Z,18.90
2024-01-07T02:42:01.856Z,19.00
2024-01-07T02:43:01.876Z,18.50
2024-01-07T02:44:01.845Z,18.70
2024-01-07T02:45:01.823Z,18.60
2024-01-07T02:46:01.885Z,18.30
2024-01-07T02:47:01.785Z,20.00
2024-01-07T02:48:01.820Z,18.60
2024-01-07T02:49:02.251Z,18.90
2024-01-07T02:50:01.771Z,18.90
2024-01-07T02:51:01.758Z,19.60
2024-01-07T02:52:01.759Z,19.50
2024-01-07T02:53:01.804Z,19.00
2024-01-07T02:54:01.696Z,19.60
2024-01-07T02:55:01.675Z,19.10
2024-01-07T02:56:01.693Z,20.10
2024-01-07T02:57:01.855Z,19.70
2024-01-07T02:58:01.747Z,20.10
2024-01-07T02:59:01.644Z,21.00
2024-01-07T03:00:01.679Z,20.00
2024-01-07T03:01:01.708Z,20.80
2024-01-07T03:02:01.692Z,20.50
2024-01-07T03:03:01.623Z,21.10
2024-01-07T03:04:01.623Z,22.00
2024-01-07T03:05:01.701Z,20.80
2024-01-07T03:06:01.588Z,21.50
2024-01-07T03:07:01.559Z,21.30
2024-01-07T03:08:01.585Z,23.00
2024-01-07T03:09:01.598Z,22.60
2024-01-07T03:10:01.517Z,21.80
2024-01-07T03:11:01.498Z,23.20
2024-01-07T03:12:01.490Z,22.40
2024-01-07T03:13:01.523Z,22.90
2024-01-07T03:14:01.443Z,23.20
2024-01-07T03:15:01.425Z,23.10
2024-01-07T03:16:01.448Z,24.30
2024-01-07T03:17:01.415Z,23.30
2024-01-07T03:18:01.436Z,24.40
2024-01-07T03:19:01.391Z,24.00
2024-01-07T03:20:01.355Z,25.10
2024-01-07T03:21:01.440Z,25.30
2024-01-07T03:22:01.403Z,25.30
2024-01-07T03:23:01.321Z,25.10
2024-01-07T03:24:01.321Z,25.00
2024-01-07T03:25:01.343Z,25.70
2024-01-07T03:26:01.312Z,24.70
2024-01-07T03:27:01.271Z,25.90
2024-01-07T03:28:01.270Z,24.40
2024-01-07T03:29:01.235Z,25.80
2024-01-07T03:30:01.263Z,25.20
2024-01-07T03:31:01.314Z,24.90
2024-01-07T03:32:01.214Z,25.00
2024-01-07T03:33:01.260Z,25.70
2024-01-07T03:34:01.545Z,25.90
2024-01-07T03:35:01.232Z,24.40
2024-01-07T03:36:01.152Z,24.60
2024-01-07T03:37:01.188Z,24.90
2024-01-07T03:38:01.137Z,24.70
2024-01-07T03:39:01.139Z,22.20
2024-01-07T03:40:01.138Z,22.30
2024-01-07T03:41:01.088Z,22.50
2024-01-07T03:42:01.092Z,22.50
2024-01-07T03:43:01.078Z,22.30
2024-01-07T03:44:01.121Z,21.60
2024-01-07T03:45:01.033Z,20.70
2024-01-07T03:46:01.101Z,21.30
2024-01-07T03:47:01.038Z,20.40
2024-01-07T03:48:01.110Z,20.50
2024-01-07T03:49:01.168Z,19.50
2024-01-07T03:50:00.987Z,19.50
2024-01-07T03:51:00.958Z,19.50
2024-01-07T03:52:00.992Z,20.00
2024-01-07T03:53:00.960Z,19.20
2024-01-07T03:54:00.924Z,19.80
2024-01-07T03:55:00.973Z,19.90
2024-01-07T03:56:00.896Z,20.10
2024-01-07T03:57:00.878Z,19.80
2024-01-07T03:58:00.908Z,21.10
2024-01-07T03:59:00.851Z,20.40
2024-01-07T04:00:00.867Z,20.00
2024-01-07T04:01:00.957Z,19.50
2024-01-07T04:02:00.915Z,20.20
2024-01-07T04:03:00.848Z,21.20
2024-01-07T04:04:00.875Z,21.00
2024-01-07T04:05:00.781Z,22.50
2024-01-07T04:06:00.825Z,21.30
2024-01-07T04:07:00.829Z,21.30
2024-01-07T04:08:00.735Z,21.80
2024-01-07T04:09:00.726Z,21.00
2024-01-07T04:10:00.785Z,21.50
2024-01-07T04:11:00.709Z,20.60
2024-01-07T04:12:00.699Z,19.90
2024-01-07T04:13:00.730Z,20.60
2024-01-07T04:14:00.666Z,20.70
2024-01-07T04:15:00.630Z,21.50
2024-01-07T04:16:00.690Z,20.60
2024-01-07T04:17:00.640Z,20.60
2024-01-07T04:18:00.635Z,21.10
2024-01-07T04:19:00.644Z,21.90
2024-01-07T04:20:00.683Z,21.80
2024-01-07T04:21:00.563Z,20.80
2024-01-07T04:22:00.604Z,21.00
2024-01-07T04:23:00.540Z,21.60
2024-01-07T04:24:00.517Z,20.80
2024-01-07T04:25:00.885Z,23.00
2024-01-07T04:26:00.523Z,22.00
2024-01-07T04:27:00.485Z,22.00
2024-01-07T04:28:00.500Z,22.70
2024-01-07T04:29:00.476Z,22.90
2024-01-07T04:30:00.457Z,22.80
2024-01-07T04:31:00.478Z,21.50
2024-01-07T04:32:00.419Z,21.90
2024-01-07T04:33:00.419Z,22.50
2024-01-07T04:34:00.464Z,22.90
2024-01-07T04:35:00.532Z,23.20
2024-01-07T04:36:00.365Z,23.30
2024-01-07T04:37:00.405Z,23.60
2024-01-07T04:38:00.361Z,22.80
2024-01-07T04:39:00.320Z,22.20
2024-01-07T04:40:00.404Z,22.60
2024-01-07T04:41:00.288Z,21.70
2024-01-07T04:42:00.281Z,22.60
2024-01-07T04:43:00.335Z,21.80
2024-01-07T04:44:00.262Z,21.60
2024-01-07T04:45:00.301Z,22.30
2024-01-07T04:46:00.300Z,21.60
2024-01-07T04:47:00.211Z,22.10
2024-01-07T04:48:00.324Z,21.50
2024-01-07T04:49:00.346Z,21.50
2024-01-07T04:50:00.318Z,22.10
2024-01-07T04:51:00.164Z,22.50
2024-01-07T04:52:00.228Z,22.30
2024-01-07T04:53:00.158Z,22.40
2024-01-07T04:54:00.161Z,22.20
2024-01-07T04:55:00.266Z,23.30
2024-01-07T04:56:00.132Z,23.00
2024-01-07T04:57:00.080Z,23.20
2024-01-07T04:58:00.098Z,23.90
2024-01-07T04:59:00.055Z,25.30
2024-01-07T05:00:00.047Z,25.50
2024-01-07T05:01:00.112Z,24.50
2024-01-07T05:02:00.032Z,25.50
2024-01-07T05:03:00.051Z,26.10
2024-01-07T05:04:00.211Z,24.80
2024-01-07T05:04:59.965Z,25.30
2024-01-07T05:05:59.993Z,25.90
2024-01-07T05:07:00.042Z,25.00
2024-01-07T05:07:59.959Z,24.80
2024-01-07T05:08:59.920Z,25.10
2024-01-07T05:09:59.958Z,24.50
2024-01-07T05:10:59.897Z,25.50
2024-01-07T05:11:59.907Z,23.30
2024-01-07T05:12:59.906Z,23.70
2024-01-07T05:13:59.852Z,24.30
2024-01-07T05:14:59.842Z,25.30
2024-01-07T05:15:59.850Z,24.80
2024-01-07T05:16:59.831Z,24.50
2024-01-07T05:17:59.849Z,24.70
2024-01-07T05:18:59.894Z,24.70
2024-01-07T05:20:00.025Z,25.30
2024-01-07T05:20:59.771Z,24.40
2024-01-07T05:21:59.808Z,23.80
2024-01-07T05:22:59.737Z,24.70
2024-01-07T05:23:59.720Z,23.30
2024-01-07T05:24:59.772Z,24.20
2024-01-07T05:25:59.721Z,23.60
2024-01-07T05:26:59.685Z,24.10
2024-01-07T05:27:59.669Z,23.50
2024-01-07T05:28:59.669Z,24.30
2024-01-07T05:29:59.675Z,24.20
2024-01-07T05:30:59.743Z,24.10
2024-01-07T05:31:59.641Z,24.10
2024-01-07T05:32:59.690Z,23.60
2024-01-07T05:33:59.697Z,24.30
2024-01-07T05:34:59.671Z,23.40
2024-01-07T05:35:59.600Z,23.40
2024-01-07T05:36:59.596Z,24.20
2024-01-07T05:37:59.555Z,22.70
2024-01-07T05:38:59.524Z,22.30
2024-01-07T05:39:59.553Z,22.00
2024-01-07T05:40:59.490Z,22.60
2024-01-07T05:41:59.525Z,22.50
2024-01-07T05:42:59.482Z,21.70
2024-01-07T05:43:59.452Z,21.60
2024-01-07T05:44:59.446Z,21.80
2024-01-07T05:45:59.499Z,21.40
2024-01-07T05:46:59.405Z,23.10
2024-01-07T05:47:59.424Z,22.10
2024-01-07T05:48:59.462Z,22.40
2024-01-07T05:49:59.437Z,22.00
2024-01-07T05:50:59.347Z,21.30
2024-01-07T05:51:59.406Z,20.50
2024-01-07T05:52:59.321Z,21.10
2024-01-07T05:53:59.326Z,19.90
2024-01-07T05:54:59.340Z,20.00
2024-01-07T05:55:59.306Z,19.00
2024-01-07T05:56:59.289Z,20.10
2024-01-07T05:57:59.306Z,19.70
2024-01-07T05:58:59.257Z,20.50
2024-01-07T05:59:59.242Z,20.30
2024-01-07T06:00:59.258Z,20.30
2024-01-07T06:01:59.295Z,19.80
2024-01-07T06:02:59.235Z,19.30
2024-01-07T06:03:59.339Z,19.80
2024-01-07T06:04:59.248Z,19.70
2024-01-07T06:05:59.202Z,19.10
2024-01-07T06:06:59.192Z,20.10
2024-01-07T06:07:59.277Z,19.00
2024-01-07T06:08:59.110Z,19.00
2024-01-07T06:09:59.169Z,19.10
2024-01-07T06:10:59.155Z,19.10
2024-01-07T06:11:59.082Z,20.40
2024-01-07T06:12:59.124Z,20.40
2024-01-07T06:13:59.047Z,20.00
2024-01-07T06:14:59.024Z,20.10
2024-01-07T06:15:59.073Z,21.00
2024-01-07T06:16:59.045Z,20.20
2024-01-07T06:17:59.065Z,31.50
2024-01-07T06:18:59.068Z,35.70
2024-01-07T06:19:59.021Z,24.90
2024-01-07T06:20:58.969Z,21.90
2024-01-07T06:21:59.020Z,21.40
2024-01-07T06:22:58.942Z,20.70
2024-01-07T06:23:58.925Z,21.50
2024-01-07T06:24:58.901Z,22.20
2024-01-07T06:25:58.887Z,22.70
2024-01-07T06:26:58.888Z,22.30
2024-01-07T06:27:58.907Z,22.60
2024-01-07T06:28:58.852Z,22.60
2024-01-07T06:29:58.879Z,23.90
2024-01-07T06:31:00.315Z,22.80
2024-01-07T06:31:58.992Z,22.80
2024-01-07T06:32:58.892Z,22.80
2024-01-07T06:33:58.965Z,21.90
2024-01-07T06:34:58.768Z,22.60
2024-01-07T06:35:58.762Z,22.50
2024-01-07T06:36:58.791Z,37.50
2024-01-07T06:37:58.726Z,51.00
2024-01-07T06:38:58.706Z,25.70
2024-01-07T06:39:58.765Z,22.70
2024-01-07T06:41:00.645Z,21.20
2024-01-07T06:41:58.674Z,22.20
2024-01-07T06:42:58.755Z,22.00
2024-01-07T06:43:58.650Z,22.50
2024-01-07T06:44:58.630Z,21.60
2024-01-07T06:45:58.679Z,22.30
2024-01-07T06:46:58.626Z,21.80
2024-01-07T06:47:58.677Z,22.70
2024-01-07T06:48:58.650Z,21.20
2024-01-07T06:49:58.606Z,21.10
2024-01-07T06:50:58.586Z,21.60
2024-01-07T06:51:58.546Z,20.40
2024-01-07T06:52:58.525Z,22.10
2024-01-07T06:53:58.512Z,20.40
2024-01-07T06:54:58.509Z,20.90
2024-01-07T06:55:58.474Z,21.10
2024-01-07T06:56:58.478Z,19.80
2024-01-07T06:57:58.482Z,19.70
2024-01-07T06:58:58.441Z,20.90
2024-01-07T06:59:58.458Z,19.70
2024-01-07T07:00:58.525Z,19.80
2024-01-07T07:01:58.500Z,19.50
2024-01-07T07:02:58.391Z,20.20
2024-01-07T07:03:58.469Z,21.40
2024-01-07T07:04:58.461Z,19.80
2024-01-07T07:05:58.432Z,21.00
2024-01-07T07:06:58.400Z,21.00
2024-01-07T07:07:58.328Z,58.60
2024-01-07T07:08:58.356Z,22.20
2024-01-07T07:09:58.331Z,20.80
2024-01-07T07:10:58.291Z,20.30
2024-01-07T07:11:58.264Z,20.70
2024-01-07T07:12:58.277Z,20.20
2024-01-07T07:13:58.278Z,21.20
2024-01-07T07:14:58.242Z,20.80
2024-01-07T07:15:58.312Z,21.10
2024-01-07T07:16:58.214Z,21.00
2024-01-07T07:17:58.268Z,21.10
2024-01-07T07:18:58.239Z,20.70
2024-01-07T07:19:58.491Z,21.10
2024-01-07T07:20:58.169Z,21.00
2024-01-07T07:21:58.187Z,20.60
2024-01-07T07:22:58.167Z,21.50
2024-01-07T07:23:58.125Z,20.30
2024-01-07T07:25:00.283Z,20.80
2024-01-07T07:25:58.102Z,20.20
2024-01-07T07:26:58.081Z,20.60
2024-01-07T07:27:58.180Z,21.30
2024-01-07T07:28:58.060Z,21.50
2024-01-07T07:29:58.037Z,20.70
2024-01-07T07:30:58.066Z,21.40
2024-01-07T07:31:58.116Z,21.30
2024-01-07T07:32:58.081Z,21.00
2024-01-07T07:33:58.061Z,21.50
2024-01-07T07:34:58.050Z,20.80
2024-01-07T07:35:57.952Z,21.00
2024-01-07T07:36:58.187Z,21.20
2024-01-07T07:37:57.989Z,21.60
2024-01-07T07:38:57.903Z,66.10
2024-01-07T07:39:57.893Z,30.00
2024-01-07T07:40:57.882Z,21.90
2024-01-07T07:41:57.872Z,22.30
2024-01-07T07:42:57.875Z,22.20
2024-01-07T07:43:57.824Z,21.70
2024-01-07T07:44:57.853Z,22.20
2024-01-07T07:45:57.844Z,22.40
2024-01-07T07:46:57.810Z,21.30
2024-01-07T07:47:57.819Z,23.10
2024-01-07T07:48:57.834Z,22.10
2024-01-07T07:49:57.893Z,21.90
2024-01-07T07:50:57.753Z,23.20
2024-01-07T07:51:57.755Z,23.00
2024-01-07T07:52:57.727Z,22.40
2024-01-07T07:53:57.703Z,22.90
2024-01-07T07:54:57.725Z,37.30
2024-01-07T07:55:57.677Z,25.30
2024-01-07T07:56:57.656Z,23.00
2024-01-07T07:57:57.714Z,23.40
2024-01-07T07:58:57.640Z,23.70
2024-01-07T07:59:59.091Z,22.60
2024-01-07T08:00:57.722Z,24.00
2024-01-07T08:01:57.693Z,23.20
2024-01-07T08:02:57.622Z,23.90
2024-01-07T08:03:57.599Z,22.50
2024-01-07T08:04:57.603Z,23.30
2024-01-07T08:05:57.592Z,23.70
2024-01-07T08:06:57.722Z,22.90
2024-01-07T08:07:57.532Z,22.80
2024-01-07T08:08:57.602Z,23.80
2024-01-07T08:09:57.520Z,22.60
2024-01-07T08:10:57.471Z,22.60
2024-01-07T08:11:57.454Z,23.30
2024-01-07T08:12:57.506Z,23.00
2024-01-07T08:13:57.440Z,23.70
2024-01-07T08:14:57.451Z,23.40
2024-01-07T08:15:57.486Z,23.10
2024-01-07T08:16:57.389Z,23.20
2024-01-07T08:17:57.421Z,22.80
2024-01-07T08:18:57.502Z,23.10
2024-01-07T08:19:57.436Z,23.60
2024-01-07T08:20:57.336Z,23.40
2024-01-07T08:21:57.344Z,23.00
2024-01-07T08:22:57.357Z,23.20
2024-01-07T08:23:57.332Z,28.90
2024-01-07T08:24:57.325Z,32.80
2024-01-07T08:25:57.258Z,29.00
2024-01-07T08:26:57.245Z,24.10
2024-01-07T08:27:57.362Z,24.40
2024-01-07T08:28:57.226Z,23.80
2024-01-07T08:29:57.222Z,24.00
2024-01-07T08:30:57.327Z,23.60
2024-01-07T08:31:57.283Z,23.00
2024-01-07T08:32:57.328Z,22.70
2024-01-07T08:33:57.203Z,23.00
2024-01-07T08:34:57.200Z,23.40
2024-01-07T08:35:57.126Z,22.50
2024-01-07T08:36:57.232Z,22.00
2024-01-07T08:37:57.108Z,20.60
2024-01-07T08:38:57.097Z,21.40
2024-01-07T08:39:57.227Z,21.70
2024-01-07T08:40:57.069Z,29.30
2024-01-07T08:41:57.065Z,36.70
2024-01-07T08:42:57.092Z,26.70
2024-01-07T08:43:57.018Z,20.80
2024-01-07T08:44:57.009Z,19.90
2024-01-07T08:45:56.995Z,19.90
2024-01-07T08:46:57.012Z,18.30
2024-01-07T08:47:57.018Z,18.60
2024-01-07T08:48:57.061Z,18.10
2024-01-07T08:49:56.978Z,17.40
2024-01-07T08:50:56.944Z,17.10
2024-01-07T08:51:56.983Z,16.60
2024-01-07T08:52:56.959Z,17.20
2024-01-07T08:53:56.897Z,16.20
2024-01-07T08:54:56.954Z,16.60
2024-01-07T08:55:56.908Z,16.60
2024-01-07T08:56:56.927Z,16.50
2024-01-07T08:57:56.907Z,16.50
2024-01-07T08:58:56.858Z,16.90
2024-01-07T08:59:56.825Z,16.90
2024-01-07T09:00:56.926Z,17.10
2024-01-07T09:01:57.032Z,16.60
2024-01-07T09:02:56.823Z,25.70
2024-01-07T09:03:56.822Z,26.30
2024-01-07T09:04:56.760Z,16.90
2024-01-07T09:05:56.852Z,17.20
2024-01-07T09:06:56.824Z,16.80
2024-01-07T09:07:56.726Z,16.40
2024-01-07T09:08:56.717Z,16.90
2024-01-07T09:09:56.734Z,16.50
2024-01-07T09:10:56.724Z,16.70
2024-01-07T09:11:56.690Z,16.10
2024-01-07T09:12:56.738Z,16.70
2024-01-07T09:13:56.638Z,36.60
2024-01-07T09:14:56.655Z,63.10
2024-01-07T09:15:56.638Z,22.20
2024-01-07T09:16:56.636Z,16.60
2024-01-07T09:17:56.661Z,16.90
2024-01-07T09:18:56.690Z,16.00
2024-01-07T09:19:56.678Z,16.00
2024-01-07T09:20:56.550Z,15.70
2024-01-07T09:21:56.568Z,15.90
2024-01-07T09:22:56.531Z,15.80
2024-01-07T09:23:56.523Z,16.20
2024-01-07T09:24:56.554Z,15.80
2024-01-07T09:25:56.494Z,15.90
2024-01-07T09:26:56.481Z,15.30
2024-01-07T09:27:56.493Z,15.20
2024-01-07T09:28:56.492Z,14.90
2024-01-07T09:29:56.429Z,16.10
2024-01-07T09:30:56.497Z,15.60
2024-01-07T09:31:56.465Z,15.10
2024-01-07T09:32:56.432Z,15.70
2024-01-07T09:33:56.410Z,15.60
2024-01-07T09:34:56.718Z,15.30
2024-01-07T09:36:02.569Z,15.20
2024-01-07T09:36:57.365Z,15.50
2024-01-07T09:37:56.371Z,15.00
2024-01-07T09:38:56.423Z,15.40
2024-01-07T09:39:56.376Z,15.30
2024-01-07T09:40:56.368Z,15.40
2024-01-07T09:41:56.265Z,15.30
2024-01-07T09:42:56.299Z,14.90
2024-01-07T09:43:56.230Z,15.10
2024-01-07T09:44:56.227Z,16.50
2024-01-07T09:45:56.220Z,30.40
2024-01-07T09:46:56.200Z,25.90
2024-01-07T09:47:56.237Z,15.30
2024-01-07T09:48:56.248Z,15.30
2024-01-07T09:49:56.184Z,15.50
2024-01-07T09:50:56.141Z,14.50
2024-01-07T09:51:56.150Z,15.30
2024-01-07T09:52:56.152Z,15.70
2024-01-07T09:53:56.105Z,15.40
2024-01-07T09:54:56.135Z,15.30
2024-01-07T09:55:56.069Z,15.30
2024-01-07T09:56:56.079Z,15.50
2024-01-07T09:57:56.106Z,15.20
2024-01-07T09:58:56.128Z,15.50
2024-01-07T09:59:56.014Z,15.90
2024-01-07T10:00:56.134Z,16.30
2024-01-07T10:01:56.786Z,16.60
2024-01-07T10:02:55.988Z,16.70
2024-01-07T10:03:56.049Z,16.50
2024-01-07T10:04:56.047Z,16.30
2024-01-07T10:05:55.988Z,16.90
2024-01-07T10:06:56.009Z,17.20
2024-01-07T10:07:55.908Z,16.40
2024-01-07T10:08:55.928Z,17.00
2024-01-07T10:09:55.932Z,16.40
2024-01-07T10:10:55.926Z,16.40
2024-01-07T10:11:55.878Z,16.70
2024-01-07T10:12:55.862Z,16.40
2024-01-07T10:13:55.837Z,17.20
2024-01-07T10:14:55.839Z,17.00
2024-01-07T10:15:55.900Z,16.10
2024-01-07T10:16:55.800Z,16.10
2024-01-07T10:17:55.861Z,16.40
2024-01-07T10:18:55.971Z,17.00
2024-01-07T10:19:55.903Z,15.70
2024-01-07T10:20:55.761Z,16.20
2024-01-07T10:21:55.751Z,16.40
2024-01-07T10:22:55.716Z,16.30
2024-01-07T10:23:55.704Z,15.80
2024-01-07T10:24:55.768Z,15.80
2024-01-07T10:25:55.674Z,16.30
2024-01-07T10:26:55.665Z,16.30
2024-01-07T10:27:55.654Z,17.00
2024-01-07T10:28:55.696Z,15.90
2024-01-07T10:29:55.634Z,16.40
2024-01-07T10:30:55.709Z,16.00
2024-01-07T10:31:55.729Z,16.40
2024-01-07T10:32:55.593Z,16.40
2024-01-07T10:33:55.694Z,16.80
2024-01-07T10:34:55.825Z,16.80
2024-01-07T10:35:55.539Z,16.00
2024-01-07T10:36:55.583Z,16.00
2024-01-07T10:37:55.522Z,16.50
2024-01-07T10:38:55.513Z,17.50
2024-01-07T10:39:55.543Z,16.00
2024-01-07T10:40:55.469Z,16.10
2024-01-07T10:41:55.464Z,16.20
2024-01-07T10:42:55.460Z,16.10
2024-01-07T10:43:55.504Z,16.50
2024-01-07T10:44:55.417Z,15.70
2024-01-07T10:45:55.434Z,15.70
2024-01-07T10:46:55.416Z,15.10
2024-01-07T10:47:55.461Z,15.40
2024-01-07T10:48:55.458Z,14.60
2024-01-07T10:49:56.884Z,16.20
2024-01-07T10:50:55.336Z,15.30
2024-01-07T10:51:55.347Z,15.70
2024-01-07T10:52:55.338Z,15.20
2024-01-07T10:53:55.320Z,15.00
2024-01-07T10:54:55.343Z,14.50
2024-01-07T10:55:57.652Z,13.90
2024-01-07T10:56:55.276Z,14.20
2024-01-07T10:57:55.309Z,13.70
2024-01-07T10:58:55.239Z,13.60
2024-01-07T10:59:55.265Z,13.60
2024-01-07T11:00:55.267Z,13.60
2024-01-07T11:01:57.432Z,13.70
2024-01-07T11:02:55.195Z,13.80
2024-01-07T11:03:55.268Z,14.00
2024-01-07T11:04:55.214Z,14.20
2024-01-07T11:05:55.258Z,13.40
2024-01-07T11:06:55.176Z,13.40
2024-01-07T11:07:55.125Z,13.90
2024-01-07T11:08:55.101Z,13.30
2024-01-07T11:09:55.187Z,13.10
2024-01-07T11:10:55.133Z,13.40
2024-01-07T11:11:55.110Z,13.20
2024-01-07T11:12:55.112Z,13.30
2024-01-07T11:13:57.930Z,13.60
2024-01-07T11:14:55.018Z,13.20
2024-01-07T11:15:55.084Z,13.70
2024-01-07T11:16:55.004Z,13.10
2024-01-07T11:17:55.029Z,13.80
2024-01-07T11:18:55.032Z,13.20
2024-01-07T11:19:57.261Z,13.60
2024-01-07T11:20:54.951Z,13.50
2024-01-07T11:21:54.948Z,13.10
2024-01-07T11:22:54.904Z,12.60
2024-01-07T11:23:54.907Z,13.40
2024-01-07T11:24:54.921Z,13.50
2024-01-07T11:25:54.908Z,13.20
2024-01-07T11:26:54.858Z,16.30
2024-01-07T11:27:54.905Z,20.70
2024-01-07T11:28:54.830Z,13.40
2024-01-07T11:29:54.836Z,13.10
2024-01-07T11:30:54.891Z,12.50
2024-01-07T11:31:54.991Z,12.60
2024-01-07T11:32:54.806Z,13.60
2024-01-07T11:33:54.876Z,14.70
2024-01-07T11:34:55.101Z,14.50
2024-01-07T11:35:54.761Z,15.30
2024-01-07T11:36:54.778Z,15.90
2024-01-07T11:37:54.714Z,14.80
2024-01-07T11:38:55.250Z,15.80
2024-01-07T11:39:54.722Z,16.20
2024-01-07T11:40:54.669Z,16.30
2024-01-07T11:41:54.662Z,15.70
2024-01-07T11:42:54.774Z,16.10
2024-01-07T11:43:54.656Z,15.30
2024-01-07T11:44:54.627Z,15.60
2024-01-07T11:45:54.664Z,15.70
2024-01-07T11:46:54.591Z,14.90
2024-01-07T11:47:54.635Z,15.40
2024-01-07T11:48:54.686Z,15.50
2024-01-07T11:49:54.657Z,15.40
2024-01-07T11:50:56.411Z,15.10
2024-01-07T11:51:54.551Z,15.70
2024-01-07T11:52:54.517Z,15.20
2024-01-07T11:53:54.630Z,15.00
2024-01-07T11:54:54.552Z,14.80
2024-01-07T11:55:54.510Z,14.30
2024-01-07T11:56:54.456Z,14.80
2024-01-07T11:57:54.536Z,14.50
2024-01-07T11:58:54.476Z,14.10
2024-01-07T11:59:54.450Z,13.90
2024-01-07T12:00:54.498Z,13.90
2024-01-07T12:01:54.540Z,13.60
2024-01-07T12:02:54.380Z,13.30
2024-01-07T12:03:54.464Z,13.40
2024-01-07T12:04:54.369Z,13.70
2024-01-07T12:05:54.368Z,12.70
2024-01-07T12:06:54.348Z,13.00
2024-01-07T12:07:54.346Z,12.10
2024-01-07T12:08:54.327Z,12.30
2024-01-07T12:09:54.314Z,14.30
2024-01-07T12:10:54.283Z,22.60
2024-01-07T12:11:54.263Z,13.40
2024-01-07T12:12:54.374Z,12.80
2024-01-07T12:13:54.254Z,12.70
2024-01-07T12:14:54.223Z,11.50
2024-01-07T12:15:54.257Z,11.40
2024-01-07T12:16:54.205Z,11.70
2024-01-07T12:17:54.277Z,11.60
2024-01-07T12:18:54.259Z,10.80
2024-01-07T12:19:54.205Z,11.00
2024-01-07T12:20:54.144Z,11.20
2024-01-07T12:21:54.187Z,10.90
2024-01-07T12:22:54.145Z,10.20
2024-01-07T12:23:54.138Z,9.80
2024-01-07T12:24:54.128Z,9.60
2024-01-07T12:25:54.119Z,10.00
2024-01-07T12:26:54.089Z,10.00
2024-01-07T12:27:54.197Z,9.80
2024-01-07T12:28:54.062Z,9.40
2024-01-07T12:29:54.035Z,9.80
2024-01-07T12:30:54.102Z,9.40
2024-01-07T12:31:54.217Z,9.00
2024-01-07T12:32:54.066Z,9.90
2024-01-07T12:33:54.184Z,9.30
2024-01-07T12:34:54.033Z,9.80
2024-01-07T12:35:53.995Z,10.00
2024-01-07T12:36:54.046Z,9.40
2024-01-07T12:37:53.941Z,9.20
2024-01-07T12:38:53.934Z,9.30
2024-01-07T12:39:53.926Z,9.90
2024-01-07T12:40:53.942Z,12.00
2024-01-07T12:41:53.895Z,25.40
2024-01-07T12:42:53.960Z,10.30
2024-01-07T12:43:53.859Z,9.90
2024-01-07T12:44:53.857Z,9.50
2024-01-07T12:45:53.882Z,9.40
2024-01-07T12:46:53.803Z,9.30
2024-01-07T12:47:53.932Z,9.20
2024-01-07T12:48:53.892Z,9.40
2024-01-07T12:49:53.823Z,9.10
2024-01-07T12:50:53.770Z,9.10
2024-01-07T12:51:53.794Z,9.00
2024-01-07T12:52:53.742Z,7.90